EDHI/XFW METAR and TAF weather

Enter ICAO airport designator
Station Type Date Time Source
EDHI METAR 2019/12/13 13:50 UTC NOAA

EDHI 131350Z 11007KT 070V140 9999 SCT015 02/M00 Q0979


Station Type Date Time Source
EDHI Decoded METAR 2019/12/13 13:50 UTC NOAA

Hamburg-Finkenwerder, Germany (EDHI) 53-32N 009-50E 13M
Dec 13, 2019 - 08:50 AM EST / 2019.12.13 1350 UTC
Wind: from the ESE (110 degrees) at 8 MPH (7 KT) (direction variable):0
Visibility: greater than 7 mile(s):0
Sky conditions: partly cloudy
Temperature: 35 F (2 C)
Windchill: 28 F (-2 C):1
Dew Point: 32 F (0 C)
Relative Humidity: 86%
Pressure (altimeter): 28.91 in. Hg (0979 hPa)
ob: EDHI 131350Z 11007KT 070V140 9999 SCT015 02/M00 Q0979
cycle: 14

Station Type Date Time Source
EDHI TAF 2010/02/22 14:20 UTC NOAA

METAR EDHI 221420Z 17005KT 9999 BKN030 05/02 Q0989

Example: see airport list